In Rescue
 
Open Full Screen Window  High Contrast Mode
July 25, 2021 6:46 AM CDT
Weather Information
Wind Direction
  ---
Wind Speed
  00 kt (0 mph)
Wind Gust
  00 kt (0 mph)
Altimeter
30.03 in
Visibility
7 SM
Temperature
17° C
63° F
Dewpoint
17° C
63° F
Humidity
100%
1hr Rain Fall
00.00 in.
24hr Rain Fall
00.00 in.
Sky Condition
Clear
VFR

METAR KAEL 251146Z AUTO 00000KT 7SM CLR 17/17 A3003 RMK AO2

FAA Disclaimer: The data displayed is for advisory purposes only and is not to be used for flight planning or operations.